sensor_id;sensor_type;location;lat;lon;timestamp;P1;durP1;ratioP1;P2;durP2;ratioP2
2031;SDS011;27625;50.422;7.944;2023-05-07T00:02:35;3.63;;;2.90;;
2031;SDS011;27625;50.422;7.944;2023-05-07T00:05:03;5.10;;;3.50;;
2031;SDS011;27625;50.422;7.944;2023-05-07T00:07:30;5.43;;;3.50;;
2031;SDS011;27625;50.422;7.944;2023-05-07T00:09:57;5.60;;;3.60;;
2031;SDS011;27625;50.422;7.944;2023-05-07T00:12:24;4.10;;;3.40;;
2031;SDS011;27625;50.422;7.944;2023-05-07T00:14:50;5.47;;;3.53;;
2031;SDS011;27625;50.422;7.944;2023-05-07T00:17:18;5.10;;;3.47;;
2031;SDS011;27625;50.422;7.944;2023-05-07T00:19:48;4.07;;;3.40;;
2031;SDS011;27625;50.422;7.944;2023-05-07T00:22:16;6.53;;;3.50;;
2031;SDS011;27625;50.422;7.944;2023-05-07T00:24:44;6.10;;;3.50;;
2031;SDS011;27625;50.422;7.944;2023-05-07T00:27:11;5.10;;;3.37;;
2031;SDS011;27625;50.422;7.944;2023-05-07T00:29:38;4.40;;;3.73;;
2031;SDS011;27625;50.422;7.944;2023-05-07T00:32:07;5.20;;;3.40;;
2031;SDS011;27625;50.422;7.944;2023-05-07T00:34:34;3.97;;;3.10;;
2031;SDS011;27625;50.422;7.944;2023-05-07T00:37:03;4.20;;;3.00;;
2031;SDS011;27625;50.422;7.944;2023-05-07T00:39:30;4.43;;;3.30;;
2031;SDS011;27625;50.422;7.944;2023-05-07T00:41:56;3.57;;;3.07;;
2031;SDS011;27625;50.422;7.944;2023-05-07T00:44:23;5.50;;;3.10;;
2031;SDS011;27625;50.422;7.944;2023-05-07T00:46:50;3.30;;;2.70;;
2031;SDS011;27625;50.422;7.944;2023-05-07T00:49:16;4.63;;;3.30;;
2031;SDS011;27625;50.422;7.944;2023-05-07T00:51:44;4.10;;;3.27;;
2031;SDS011;27625;50.422;7.944;2023-05-07T00:54:15;4.50;;;3.47;;
2031;SDS011;27625;50.422;7.944;2023-05-07T00:56:41;5.57;;;3.90;;
2031;SDS011;27625;50.422;7.944;2023-05-07T00:59:08;9.27;;;3.20;;
2031;SDS011;27625;50.422;7.944;2023-05-07T01:01:35;5.77;;;3.13;;
2031;SDS011;27625;50.422;7.944;2023-05-07T01:04:02;4.40;;;3.43;;
2031;SDS011;27625;50.422;7.944;2023-05-07T01:06:29;4.93;;;3.20;;
2031;SDS011;27625;50.422;7.944;2023-05-07T01:08:56;4.00;;;2.93;;
2031;SDS011;27625;50.422;7.944;2023-05-07T01:11:26;5.23;;;3.33;;
2031;SDS011;27625;50.422;7.944;2023-05-07T01:13:53;4.23;;;2.70;;
2031;SDS011;27625;50.422;7.944;2023-05-07T01:16:20;4.10;;;3.40;;
2031;SDS011;27625;50.422;7.944;2023-05-07T01:18:48;4.50;;;3.00;;
2031;SDS011;27625;50.422;7.944;2023-05-07T01:21:17;4.10;;;3.30;;
2031;SDS011;27625;50.422;7.944;2023-05-07T01:23:46;3.50;;;2.70;;
2031;SDS011;27625;50.422;7.944;2023-05-07T01:26:13;4.13;;;3.03;;
2031;SDS011;27625;50.422;7.944;2023-05-07T01:28:43;5.13;;;3.37;;
2031;SDS011;27625;50.422;7.944;2023-05-07T01:31:12;4.37;;;3.37;;
2031;SDS011;27625;50.422;7.944;2023-05-07T01:33:40;4.97;;;3.40;;
2031;SDS011;27625;50.422;7.944;2023-05-07T01:36:07;4.93;;;3.07;;
2031;SDS011;27625;50.422;7.944;2023-05-07T01:38:35;4.40;;;3.13;;
2031;SDS011;27625;50.422;7.944;2023-05-07T01:41:04;4.07;;;2.73;;
2031;SDS011;27625;50.422;7.944;2023-05-07T01:43:31;4.23;;;3.00;;
2031;SDS011;27625;50.422;7.944;2023-05-07T01:45:58;4.33;;;3.23;;
2031;SDS011;27625;50.422;7.944;2023-05-07T01:48:25;4.37;;;3.17;;
2031;SDS011;27625;50.422;7.944;2023-05-07T01:50:53;3.73;;;3.07;;
2031;SDS011;27625;50.422;7.944;2023-05-07T01:53:20;5.00;;;3.33;;
2031;SDS011;27625;50.422;7.944;2023-05-07T01:55:46;5.40;;;2.97;;
2031;SDS011;27625;50.422;7.944;2023-05-07T01:58:17;5.27;;;3.10;;
2031;SDS011;27625;50.422;7.944;2023-05-07T02:00:43;4.40;;;3.27;;
2031;SDS011;27625;50.422;7.944;2023-05-07T02:03:11;7.53;;;3.40;;
2031;SDS011;27625;50.422;7.944;2023-05-07T02:05:45;4.43;;;3.20;;
2031;SDS011;27625;50.422;7.944;2023-05-07T02:08:20;5.47;;;3.97;;
2031;SDS011;27625;50.422;7.944;2023-05-07T02:10:46;4.50;;;3.60;;
2031;SDS011;27625;50.422;7.944;2023-05-07T02:13:13;4.10;;;3.50;;
2031;SDS011;27625;50.422;7.944;2023-05-07T02:15:43;3.97;;;3.30;;
2031;SDS011;27625;50.422;7.944;2023-05-07T02:18:16;4.23;;;2.90;;
2031;SDS011;27625;50.422;7.944;2023-05-07T02:20:43;5.00;;;3.10;;
2031;SDS011;27625;50.422;7.944;2023-05-07T02:23:09;3.80;;;3.17;;
2031;SDS011;27625;50.422;7.944;2023-05-07T02:25:37;5.57;;;3.43;;
2031;SDS011;27625;50.422;7.944;2023-05-07T02:28:04;4.00;;;2.90;;
2031;SDS011;27625;50.422;7.944;2023-05-07T02:31:08;3.97;;;3.10;;
2031;SDS011;27625;50.422;7.944;2023-05-07T02:33:34;4.00;;;3.50;;
2031;SDS011;27625;50.422;7.944;2023-05-07T02:36:07;5.73;;;3.57;;
2031;SDS011;27625;50.422;7.944;2023-05-07T02:38:37;5.43;;;3.17;;
2031;SDS011;27625;50.422;7.944;2023-05-07T02:41:05;4.73;;;3.20;;
2031;SDS011;27625;50.422;7.944;2023-05-07T02:43:33;4.57;;;3.20;;
2031;SDS011;27625;50.422;7.944;2023-05-07T02:46:00;4.23;;;3.20;;
2031;SDS011;27625;50.422;7.944;2023-05-07T02:48:29;5.13;;;3.37;;
2031;SDS011;27625;50.422;7.944;2023-05-07T02:50:57;4.70;;;2.97;;
2031;SDS011;27625;50.422;7.944;2023-05-07T02:53:24;5.30;;;3.27;;
2031;SDS011;27625;50.422;7.944;2023-05-07T02:55:54;4.33;;;3.10;;
2031;SDS011;27625;50.422;7.944;2023-05-07T02:58:22;5.50;;;3.10;;
2031;SDS011;27625;50.422;7.944;2023-05-07T03:00:49;4.20;;;3.27;;
2031;SDS011;27625;50.422;7.944;2023-05-07T03:03:34;4.43;;;3.40;;
2031;SDS011;27625;50.422;7.944;2023-05-07T03:06:01;4.00;;;3.20;;
2031;SDS011;27625;50.422;7.944;2023-05-07T03:08:28;3.97;;;3.33;;
2031;SDS011;27625;50.422;7.944;2023-05-07T03:10:55;4.60;;;3.53;;
2031;SDS011;27625;50.422;7.944;2023-05-07T03:13:23;5.10;;;3.47;;
2031;SDS011;27625;50.422;7.944;2023-05-07T03:15:50;5.27;;;3.00;;
2031;SDS011;27625;50.422;7.944;2023-05-07T03:18:17;4.77;;;3.50;;
2031;SDS011;27625;50.422;7.944;2023-05-07T03:20:45;4.17;;;3.20;;
2031;SDS011;27625;50.422;7.944;2023-05-07T03:23:12;4.17;;;2.90;;
2031;SDS011;27625;50.422;7.944;2023-05-07T03:25:40;3.67;;;3.23;;
2031;SDS011;27625;50.422;7.944;2023-05-07T03:28:06;5.40;;;3.53;;
2031;SDS011;27625;50.422;7.944;2023-05-07T03:30:40;5.50;;;3.70;;
2031;SDS011;27625;50.422;7.944;2023-05-07T03:33:06;3.73;;;3.00;;
2031;SDS011;27625;50.422;7.944;2023-05-07T03:35:37;4.03;;;3.63;;
2031;SDS011;27625;50.422;7.944;2023-05-07T03:38:05;4.17;;;3.43;;
2031;SDS011;27625;50.422;7.944;2023-05-07T03:40:35;4.77;;;3.47;;
2031;SDS011;27625;50.422;7.944;2023-05-07T03:43:04;4.43;;;3.67;;
2031;SDS011;27625;50.422;7.944;2023-05-07T03:45:37;6.00;;;4.30;;
2031;SDS011;27625;50.422;7.944;2023-05-07T03:48:10;5.60;;;3.90;;
2031;SDS011;27625;50.422;7.944;2023-05-07T03:50:38;4.53;;;3.47;;
2031;SDS011;27625;50.422;7.944;2023-05-07T03:53:08;4.63;;;3.73;;
2031;SDS011;27625;50.422;7.944;2023-05-07T03:55:38;4.80;;;3.70;;
2031;SDS011;27625;50.422;7.944;2023-05-07T03:58:05;4.60;;;3.73;;
2031;SDS011;27625;50.422;7.944;2023-05-07T04:00:31;7.47;;;3.93;;
2031;SDS011;27625;50.422;7.944;2023-05-07T04:03:12;5.70;;;3.90;;
2031;SDS011;27625;50.422;7.944;2023-05-07T04:05:42;4.80;;;3.80;;
2031;SDS011;27625;50.422;7.944;2023-05-07T04:08:11;4.37;;;3.30;;
2031;SDS011;27625;50.422;7.944;2023-05-07T04:10:41;6.13;;;4.07;;
2031;SDS011;27625;50.422;7.944;2023-05-07T04:13:11;3.90;;;3.50;;
2031;SDS011;27625;50.422;7.944;2023-05-07T04:15:37;5.10;;;3.97;;
2031;SDS011;27625;50.422;7.944;2023-05-07T04:18:10;7.77;;;4.67;;
2031;SDS011;27625;50.422;7.944;2023-05-07T04:20:38;5.00;;;4.10;;
2031;SDS011;27625;50.422;7.944;2023-05-07T04:23:10;6.17;;;4.27;;
2031;SDS011;27625;50.422;7.944;2023-05-07T04:25:39;5.00;;;3.83;;
2031;SDS011;27625;50.422;7.944;2023-05-07T04:28:17;7.43;;;4.00;;
2031;SDS011;27625;50.422;7.944;2023-05-07T04:30:44;6.07;;;4.50;;
2031;SDS011;27625;50.422;7.944;2023-05-07T04:33:13;6.43;;;4.70;;
2031;SDS011;27625;50.422;7.944;2023-05-07T04:35:43;5.60;;;4.57;;
2031;SDS011;27625;50.422;7.944;2023-05-07T04:38:12;6.03;;;4.33;;
2031;SDS011;27625;50.422;7.944;2023-05-07T04:40:41;6.37;;;4.13;;
2031;SDS011;27625;50.422;7.944;2023-05-07T04:43:11;10.13;;;4.30;;
2031;SDS011;27625;50.422;7.944;2023-05-07T04:45:45;5.17;;;4.13;;
2031;SDS011;27625;50.422;7.944;2023-05-07T04:48:12;4.93;;;4.23;;
2031;SDS011;27625;50.422;7.944;2023-05-07T04:50:41;5.60;;;4.60;;
2031;SDS011;27625;50.422;7.944;2023-05-07T04:53:08;5.27;;;4.37;;
2031;SDS011;27625;50.422;7.944;2023-05-07T04:55:36;7.13;;;4.40;;
2031;SDS011;27625;50.422;7.944;2023-05-07T04:58:04;5.43;;;4.30;;
2031;SDS011;27625;50.422;7.944;2023-05-07T05:00:33;6.93;;;4.70;;
2031;SDS011;27625;50.422;7.944;2023-05-07T05:03:03;4.73;;;3.63;;
2031;SDS011;27625;50.422;7.944;2023-05-07T05:05:31;5.03;;;4.00;;
2031;SDS011;27625;50.422;7.944;2023-05-07T05:07:58;5.73;;;4.33;;
2031;SDS011;27625;50.422;7.944;2023-05-07T05:10:25;6.17;;;3.90;;
2031;SDS011;27625;50.422;7.944;2023-05-07T05:12:53;4.73;;;3.90;;
2031;SDS011;27625;50.422;7.944;2023-05-07T05:15:21;6.70;;;4.63;;
2031;SDS011;27625;50.422;7.944;2023-05-07T05:17:49;6.70;;;3.77;;
2031;SDS011;27625;50.422;7.944;2023-05-07T05:20:17;5.67;;;4.00;;
2031;SDS011;27625;50.422;7.944;2023-05-07T05:22:44;6.40;;;4.50;;
2031;SDS011;27625;50.422;7.944;2023-05-07T05:25:12;6.40;;;4.60;;
2031;SDS011;27625;50.422;7.944;2023-05-07T05:27:39;5.80;;;4.30;;
2031;SDS011;27625;50.422;7.944;2023-05-07T05:30:08;5.47;;;4.40;;
2031;SDS011;27625;50.422;7.944;2023-05-07T05:32:37;5.60;;;4.80;;
2031;SDS011;27625;50.422;7.944;2023-05-07T05:37:35;4.93;;;4.00;;
2031;SDS011;27625;50.422;7.944;2023-05-07T05:40:04;6.17;;;5.00;;
2031;SDS011;27625;50.422;7.944;2023-05-07T05:42:33;5.60;;;4.50;;
2031;SDS011;27625;50.422;7.944;2023-05-07T05:45:00;6.30;;;4.97;;
2031;SDS011;27625;50.422;7.944;2023-05-07T05:47:30;5.47;;;4.90;;
2031;SDS011;27625;50.422;7.944;2023-05-07T05:49:58;7.50;;;4.93;;
2031;SDS011;27625;50.422;7.944;2023-05-07T05:52:25;6.00;;;4.93;;
2031;SDS011;27625;50.422;7.944;2023-05-07T05:54:54;5.77;;;5.17;;
2031;SDS011;27625;50.422;7.944;2023-05-07T05:57:20;7.87;;;4.77;;
2031;SDS011;27625;50.422;7.944;2023-05-07T05:59:47;5.10;;;4.37;;
2031;SDS011;27625;50.422;7.944;2023-05-07T06:02:14;6.97;;;5.47;;
2031;SDS011;27625;50.422;7.944;2023-05-07T06:04:42;5.63;;;4.73;;
2031;SDS011;27625;50.422;7.944;2023-05-07T06:07:11;6.43;;;4.90;;
2031;SDS011;27625;50.422;7.944;2023-05-07T06:09:37;6.27;;;4.90;;
2031;SDS011;27625;50.422;7.944;2023-05-07T06:12:05;5.53;;;4.73;;
2031;SDS011;27625;50.422;7.944;2023-05-07T06:14:32;6.53;;;5.13;;
2031;SDS011;27625;50.422;7.944;2023-05-07T06:16:59;7.13;;;4.60;;
2031;SDS011;27625;50.422;7.944;2023-05-07T06:19:26;5.90;;;4.67;;
2031;SDS011;27625;50.422;7.944;2023-05-07T06:21:56;5.40;;;4.80;;
2031;SDS011;27625;50.422;7.944;2023-05-07T06:24:24;7.97;;;5.40;;
2031;SDS011;27625;50.422;7.944;2023-05-07T06:26:50;5.03;;;4.53;;
2031;SDS011;27625;50.422;7.944;2023-05-07T06:29:17;7.30;;;4.70;;
2031;SDS011;27625;50.422;7.944;2023-05-07T06:31:45;6.90;;;4.93;;
2031;SDS011;27625;50.422;7.944;2023-05-07T06:34:12;6.40;;;4.77;;
2031;SDS011;27625;50.422;7.944;2023-05-07T06:36:40;6.30;;;5.17;;
2031;SDS011;27625;50.422;7.944;2023-05-07T06:39:24;6.37;;;4.97;;
2031;SDS011;27625;50.422;7.944;2023-05-07T06:41:51;5.73;;;4.67;;
2031;SDS011;27625;50.422;7.944;2023-05-07T06:44:24;6.00;;;4.90;;
2031;SDS011;27625;50.422;7.944;2023-05-07T06:47:03;6.23;;;4.57;;
2031;SDS011;27625;50.422;7.944;2023-05-07T06:49:30;7.00;;;4.80;;
2031;SDS011;27625;50.422;7.944;2023-05-07T06:51:57;7.30;;;4.93;;
2031;SDS011;27625;50.422;7.944;2023-05-07T06:54:26;6.60;;;4.63;;
2031;SDS011;27625;50.422;7.944;2023-05-07T06:56:52;6.47;;;4.53;;
2031;SDS011;27625;50.422;7.944;2023-05-07T06:59:23;5.27;;;4.53;;
2031;SDS011;27625;50.422;7.944;2023-05-07T07:01:50;6.60;;;5.30;;
2031;SDS011;27625;50.422;7.944;2023-05-07T07:04:18;7.60;;;4.80;;
2031;SDS011;27625;50.422;7.944;2023-05-07T07:06:52;5.67;;;5.10;;
2031;SDS011;27625;50.422;7.944;2023-05-07T07:09:21;7.00;;;5.03;;
2031;SDS011;27625;50.422;7.944;2023-05-07T07:11:49;5.13;;;4.20;;
2031;SDS011;27625;50.422;7.944;2023-05-07T07:14:17;7.50;;;4.60;;
2031;SDS011;27625;50.422;7.944;2023-05-07T07:16:47;6.20;;;4.57;;
2031;SDS011;27625;50.422;7.944;2023-05-07T07:19:17;6.30;;;4.87;;
2031;SDS011;27625;50.422;7.944;2023-05-07T07:21:46;6.03;;;5.00;;
2031;SDS011;27625;50.422;7.944;2023-05-07T07:24:13;6.63;;;5.10;;
2031;SDS011;27625;50.422;7.944;2023-05-07T07:26:45;8.97;;;5.90;;
2031;SDS011;27625;50.422;7.944;2023-05-07T07:29:13;6.33;;;5.73;;
2031;SDS011;27625;50.422;7.944;2023-05-07T07:31:41;7.43;;;5.90;;
2031;SDS011;27625;50.422;7.944;2023-05-07T07:34:08;7.90;;;5.47;;
2031;SDS011;27625;50.422;7.944;2023-05-07T07:36:36;7.27;;;6.00;;
2031;SDS011;27625;50.422;7.944;2023-05-07T07:39:03;6.40;;;5.80;;
2031;SDS011;27625;50.422;7.944;2023-05-07T07:41:29;6.30;;;5.60;;
2031;SDS011;27625;50.422;7.944;2023-05-07T07:43:56;6.60;;;5.30;;
2031;SDS011;27625;50.422;7.944;2023-05-07T07:46:24;9.17;;;5.97;;
2031;SDS011;27625;50.422;7.944;2023-05-07T07:48:52;7.17;;;6.00;;
2031;SDS011;27625;50.422;7.944;2023-05-07T07:51:19;7.77;;;6.03;;
2031;SDS011;27625;50.422;7.944;2023-05-07T07:53:46;7.47;;;6.33;;
2031;SDS011;27625;50.422;7.944;2023-05-07T07:56:13;7.20;;;6.50;;
2031;SDS011;27625;50.422;7.944;2023-05-07T07:58:39;7.63;;;6.30;;
2031;SDS011;27625;50.422;7.944;2023-05-07T08:01:06;6.63;;;5.83;;
2031;SDS011;27625;50.422;7.944;2023-05-07T08:03:35;6.17;;;5.57;;
2031;SDS011;27625;50.422;7.944;2023-05-07T08:06:03;7.00;;;5.60;;
2031;SDS011;27625;50.422;7.944;2023-05-07T08:08:31;7.30;;;5.60;;
2031;SDS011;27625;50.422;7.944;2023-05-07T08:10:58;10.03;;;6.27;;
2031;SDS011;27625;50.422;7.944;2023-05-07T08:13:29;6.37;;;5.70;;
2031;SDS011;27625;50.422;7.944;2023-05-07T08:15:57;7.00;;;5.77;;
2031;SDS011;27625;50.422;7.944;2023-05-07T08:18:24;7.40;;;5.63;;
2031;SDS011;27625;50.422;7.944;2023-05-07T08:20:54;6.60;;;5.57;;
2031;SDS011;27625;50.422;7.944;2023-05-07T08:23:24;7.70;;;6.40;;
2031;SDS011;27625;50.422;7.944;2023-05-07T08:25:52;8.20;;;6.10;;
2031;SDS011;27625;50.422;7.944;2023-05-07T08:28:19;6.20;;;5.33;;
2031;SDS011;27625;50.422;7.944;2023-05-07T08:30:47;7.97;;;5.67;;
2031;SDS011;27625;50.422;7.944;2023-05-07T08:33:13;8.60;;;6.00;;
2031;SDS011;27625;50.422;7.944;2023-05-07T08:35:40;7.30;;;5.20;;
2031;SDS011;27625;50.422;7.944;2023-05-07T08:38:09;8.43;;;6.00;;
2031;SDS011;27625;50.422;7.944;2023-05-07T08:40:36;9.50;;;5.90;;
2031;SDS011;27625;50.422;7.944;2023-05-07T08:43:07;9.17;;;6.60;;
2031;SDS011;27625;50.422;7.944;2023-05-07T08:45:36;7.50;;;6.10;;
2031;SDS011;27625;50.422;7.944;2023-05-07T08:48:08;7.73;;;6.60;;
2031;SDS011;27625;50.422;7.944;2023-05-07T08:50:37;6.90;;;6.13;;
2031;SDS011;27625;50.422;7.944;2023-05-07T08:53:05;7.37;;;6.53;;
2031;SDS011;27625;50.422;7.944;2023-05-07T08:55:34;9.40;;;7.00;;
2031;SDS011;27625;50.422;7.944;2023-05-07T08:58:01;7.23;;;6.00;;
2031;SDS011;27625;50.422;7.944;2023-05-07T09:00:31;7.87;;;6.60;;
2031;SDS011;27625;50.422;7.944;2023-05-07T09:03:00;7.13;;;6.23;;
2031;SDS011;27625;50.422;7.944;2023-05-07T09:05:27;8.17;;;6.27;;
2031;SDS011;27625;50.422;7.944;2023-05-07T09:07:53;8.13;;;7.10;;
2031;SDS011;27625;50.422;7.944;2023-05-07T09:10:22;8.03;;;6.93;;
2031;SDS011;27625;50.422;7.944;2023-05-07T09:12:51;7.80;;;7.00;;
2031;SDS011;27625;50.422;7.944;2023-05-07T09:15:17;7.57;;;6.53;;
2031;SDS011;27625;50.422;7.944;2023-05-07T09:17:44;8.37;;;7.13;;
2031;SDS011;27625;50.422;7.944;2023-05-07T09:20:12;7.73;;;6.60;;
2031;SDS011;27625;50.422;7.944;2023-05-07T09:22:39;7.90;;;6.87;;
2031;SDS011;27625;50.422;7.944;2023-05-07T09:25:10;7.07;;;6.40;;
2031;SDS011;27625;50.422;7.944;2023-05-07T09:27:38;8.37;;;7.10;;
2031;SDS011;27625;50.422;7.944;2023-05-07T09:30:07;8.50;;;7.00;;
2031;SDS011;27625;50.422;7.944;2023-05-07T09:32:40;7.77;;;6.33;;
2031;SDS011;27625;50.422;7.944;2023-05-07T09:35:18;7.87;;;6.50;;
2031;SDS011;27625;50.422;7.944;2023-05-07T09:40:22;6.77;;;6.07;;
2031;SDS011;27625;50.422;7.944;2023-05-07T09:42:51;7.27;;;6.57;;
2031;SDS011;27625;50.422;7.944;2023-05-07T09:45:25;9.53;;;7.60;;
2031;SDS011;27625;50.422;7.944;2023-05-07T09:47:54;8.20;;;7.40;;
2031;SDS011;27625;50.422;7.944;2023-05-07T09:50:25;8.40;;;7.50;;
2031;SDS011;27625;50.422;7.944;2023-05-07T09:52:54;8.50;;;7.60;;
2031;SDS011;27625;50.422;7.944;2023-05-07T09:55:23;8.03;;;7.20;;
2031;SDS011;27625;50.422;7.944;2023-05-07T09:57:50;8.40;;;7.50;;
2031;SDS011;27625;50.422;7.944;2023-05-07T10:00:18;9.00;;;8.10;;
2031;SDS011;27625;50.422;7.944;2023-05-07T10:02:48;10.10;;;7.90;;
2031;SDS011;27625;50.422;7.944;2023-05-07T10:05:20;9.20;;;7.70;;
2031;SDS011;27625;50.422;7.944;2023-05-07T10:07:48;8.00;;;7.20;;
2031;SDS011;27625;50.422;7.944;2023-05-07T10:10:18;8.10;;;7.30;;
2031;SDS011;27625;50.422;7.944;2023-05-07T10:12:48;8.77;;;7.23;;
2031;SDS011;27625;50.422;7.944;2023-05-07T10:15:25;9.70;;;8.13;;
2031;SDS011;27625;50.422;7.944;2023-05-07T10:17:57;9.03;;;7.87;;
2031;SDS011;27625;50.422;7.944;2023-05-07T10:20:24;9.27;;;7.80;;
2031;SDS011;27625;50.422;7.944;2023-05-07T10:22:53;9.17;;;7.80;;
2031;SDS011;27625;50.422;7.944;2023-05-07T10:25:28;8.50;;;7.60;;
2031;SDS011;27625;50.422;7.944;2023-05-07T10:28:03;8.60;;;7.70;;
2031;SDS011;27625;50.422;7.944;2023-05-07T10:30:33;8.70;;;7.67;;
2031;SDS011;27625;50.422;7.944;2023-05-07T10:33:09;7.93;;;7.10;;
2031;SDS011;27625;50.422;7.944;2023-05-07T10:35:41;7.53;;;6.50;;
2031;SDS011;27625;50.422;7.944;2023-05-07T10:38:10;7.27;;;6.57;;
2031;SDS011;27625;50.422;7.944;2023-05-07T10:40:39;7.83;;;7.03;;
2031;SDS011;27625;50.422;7.944;2023-05-07T10:43:07;7.50;;;6.70;;
2031;SDS011;27625;50.422;7.944;2023-05-07T10:45:42;7.40;;;6.67;;
2031;SDS011;27625;50.422;7.944;2023-05-07T10:48:12;8.60;;;6.90;;
2031;SDS011;27625;50.422;7.944;2023-05-07T10:50:42;8.70;;;7.30;;
2031;SDS011;27625;50.422;7.944;2023-05-07T10:53:24;9.63;;;7.73;;
2031;SDS011;27625;50.422;7.944;2023-05-07T11:02:13;8.30;;;5.67;;
2031;SDS011;27625;50.422;7.944;2023-05-07T11:05:21;9.47;;;7.57;;
2031;SDS011;27625;50.422;7.944;2023-05-07T11:10:48;8.17;;;7.37;;
2031;SDS011;27625;50.422;7.944;2023-05-07T11:13:41;7.63;;;6.23;;
2031;SDS011;27625;50.422;7.944;2023-05-07T11:16:17;5.53;;;5.03;;
2031;SDS011;27625;50.422;7.944;2023-05-07T11:18:47;6.50;;;5.83;;
2031;SDS011;27625;50.422;7.944;2023-05-07T11:24:23;9.70;;;6.87;;
2031;SDS011;27625;50.422;7.944;2023-05-07T11:27:02;6.20;;;5.60;;
2031;SDS011;27625;50.422;7.944;2023-05-07T11:29:33;7.03;;;6.33;;
2031;SDS011;27625;50.422;7.944;2023-05-07T11:32:10;9.03;;;7.27;;
2031;SDS011;27625;50.422;7.944;2023-05-07T11:34:43;8.13;;;7.33;;
2031;SDS011;27625;50.422;7.944;2023-05-07T11:37:12;10.43;;;6.23;;
2031;SDS011;27625;50.422;7.944;2023-05-07T11:40:02;7.87;;;7.10;;
2031;SDS011;27625;50.422;7.944;2023-05-07T11:42:31;8.17;;;7.37;;
2031;SDS011;27625;50.422;7.944;2023-05-07T11:45:00;7.37;;;6.67;;
2031;SDS011;27625;50.422;7.944;2023-05-07T11:47:29;8.10;;;7.30;;
2031;SDS011;27625;50.422;7.944;2023-05-07T11:49:56;7.93;;;6.87;;
2031;SDS011;27625;50.422;7.944;2023-05-07T11:52:25;7.00;;;6.30;;
2031;SDS011;27625;50.422;7.944;2023-05-07T11:54:52;7.90;;;7.00;;
2031;SDS011;27625;50.422;7.944;2023-05-07T11:57:19;7.40;;;6.63;;
2031;SDS011;27625;50.422;7.944;2023-05-07T11:59:47;8.70;;;7.87;;
2031;SDS011;27625;50.422;7.944;2023-05-07T12:02:15;8.80;;;8.00;;
2031;SDS011;27625;50.422;7.944;2023-05-07T12:04:44;9.17;;;7.07;;
2031;SDS011;27625;50.422;7.944;2023-05-07T12:07:11;9.13;;;7.90;;
2031;SDS011;27625;50.422;7.944;2023-05-07T12:09:39;8.10;;;7.30;;
2031;SDS011;27625;50.422;7.944;2023-05-07T12:12:07;8.43;;;7.60;;
2031;SDS011;27625;50.422;7.944;2023-05-07T12:14:37;9.50;;;8.60;;
2031;SDS011;27625;50.422;7.944;2023-05-07T12:17:07;8.23;;;7.33;;
2031;SDS011;27625;50.422;7.944;2023-05-07T12:19:34;7.80;;;7.00;;
2031;SDS011;27625;50.422;7.944;2023-05-07T12:22:05;9.30;;;7.83;;
2031;SDS011;27625;50.422;7.944;2023-05-07T12:24:44;10.67;;;6.90;;
2031;SDS011;27625;50.422;7.944;2023-05-07T12:27:11;8.80;;;6.97;;
2031;SDS011;27625;50.422;7.944;2023-05-07T12:29:37;8.17;;;7.37;;
2031;SDS011;27625;50.422;7.944;2023-05-07T12:32:06;9.20;;;7.33;;
2031;SDS011;27625;50.422;7.944;2023-05-07T12:34:34;8.47;;;7.60;;
2031;SDS011;27625;50.422;7.944;2023-05-07T12:37:01;8.60;;;7.70;;
2031;SDS011;27625;50.422;7.944;2023-05-07T12:39:30;8.13;;;7.33;;
2031;SDS011;27625;50.422;7.944;2023-05-07T12:41:59;7.80;;;7.00;;
2031;SDS011;27625;50.422;7.944;2023-05-07T12:44:28;7.80;;;6.90;;
2031;SDS011;27625;50.422;7.944;2023-05-07T12:46:56;7.10;;;6.40;;
2031;SDS011;27625;50.422;7.944;2023-05-07T12:49:23;6.73;;;6.03;;
2031;SDS011;27625;50.422;7.944;2023-05-07T12:51:50;6.30;;;5.70;;
2031;SDS011;27625;50.422;7.944;2023-05-07T12:54:27;7.13;;;6.43;;
2031;SDS011;27625;50.422;7.944;2023-05-07T12:57:01;8.30;;;7.40;;
2031;SDS011;27625;50.422;7.944;2023-05-07T12:59:32;8.60;;;7.30;;
2031;SDS011;27625;50.422;7.944;2023-05-07T13:02:00;9.93;;;6.57;;
2031;SDS011;27625;50.422;7.944;2023-05-07T13:04:28;7.20;;;5.93;;
2031;SDS011;27625;50.422;7.944;2023-05-07T13:06:55;7.20;;;6.13;;
2031;SDS011;27625;50.422;7.944;2023-05-07T13:09:22;6.77;;;5.80;;
2031;SDS011;27625;50.422;7.944;2023-05-07T13:11:49;6.87;;;6.17;;
2031;SDS011;27625;50.422;7.944;2023-05-07T13:14:17;7.90;;;6.77;;
2031;SDS011;27625;50.422;7.944;2023-05-07T13:16:46;7.80;;;6.23;;
2031;SDS011;27625;50.422;7.944;2023-05-07T13:19:12;7.30;;;6.60;;
2031;SDS011;27625;50.422;7.944;2023-05-07T13:21:39;6.97;;;5.20;;
2031;SDS011;27625;50.422;7.944;2023-05-07T13:24:06;7.20;;;6.50;;
2031;SDS011;27625;50.422;7.944;2023-05-07T13:26:33;6.87;;;6.10;;
2031;SDS011;27625;50.422;7.944;2023-05-07T13:29:01;7.70;;;5.60;;
2031;SDS011;27625;50.422;7.944;2023-05-07T13:31:29;7.90;;;5.90;;
2031;SDS011;27625;50.422;7.944;2023-05-07T13:33:56;7.27;;;6.20;;
2031;SDS011;27625;50.422;7.944;2023-05-07T13:36:24;6.80;;;6.10;;
2031;SDS011;27625;50.422;7.944;2023-05-07T13:38:51;6.70;;;6.00;;
2031;SDS011;27625;50.422;7.944;2023-05-07T13:41:18;6.83;;;5.60;;
2031;SDS011;27625;50.422;7.944;2023-05-07T13:43:45;6.83;;;5.67;;
2031;SDS011;27625;50.422;7.944;2023-05-07T13:46:12;6.37;;;5.30;;
2031;SDS011;27625;50.422;7.944;2023-05-07T13:48:41;6.17;;;5.57;;
2031;SDS011;27625;50.422;7.944;2023-05-07T13:51:08;6.37;;;5.67;;
2031;SDS011;27625;50.422;7.944;2023-05-07T13:53:35;6.33;;;5.10;;
2031;SDS011;27625;50.422;7.944;2023-05-07T13:56:02;7.03;;;5.90;;
2031;SDS011;27625;50.422;7.944;2023-05-07T13:58:29;7.47;;;5.83;;
2031;SDS011;27625;50.422;7.944;2023-05-07T14:00:56;7.43;;;6.37;;
2031;SDS011;27625;50.422;7.944;2023-05-07T14:03:24;6.40;;;5.70;;
2031;SDS011;27625;50.422;7.944;2023-05-07T14:05:52;7.33;;;5.80;;
2031;SDS011;27625;50.422;7.944;2023-05-07T14:08:19;6.37;;;5.50;;
2031;SDS011;27625;50.422;7.944;2023-05-07T14:10:45;5.63;;;5.00;;
2031;SDS011;27625;50.422;7.944;2023-05-07T14:13:12;7.30;;;5.17;;
2031;SDS011;27625;50.422;7.944;2023-05-07T14:15:39;6.00;;;5.30;;
2031;SDS011;27625;50.422;7.944;2023-05-07T14:18:07;6.77;;;4.93;;
2031;SDS011;27625;50.422;7.944;2023-05-07T14:20:35;7.43;;;5.00;;
2031;SDS011;27625;50.422;7.944;2023-05-07T14:23:05;6.20;;;5.37;;
2031;SDS011;27625;50.422;7.944;2023-05-07T14:25:33;6.47;;;5.30;;
2031;SDS011;27625;50.422;7.944;2023-05-07T14:28:00;6.30;;;5.00;;
2031;SDS011;27625;50.422;7.944;2023-05-07T14:30:29;6.47;;;5.37;;
2031;SDS011;27625;50.422;7.944;2023-05-07T14:32:56;5.53;;;4.93;;
2031;SDS011;27625;50.422;7.944;2023-05-07T14:35:22;5.57;;;4.90;;
2031;SDS011;27625;50.422;7.944;2023-05-07T14:37:50;7.73;;;5.50;;
2031;SDS011;27625;50.422;7.944;2023-05-07T14:40:19;8.00;;;5.23;;
2031;SDS011;27625;50.422;7.944;2023-05-07T14:42:46;7.87;;;5.37;;
2031;SDS011;27625;50.422;7.944;2023-05-07T14:45:13;7.80;;;5.70;;
2031;SDS011;27625;50.422;7.944;2023-05-07T14:47:40;6.27;;;5.27;;
2031;SDS011;27625;50.422;7.944;2023-05-07T14:50:07;6.73;;;5.33;;
2031;SDS011;27625;50.422;7.944;2023-05-07T14:52:34;7.33;;;5.23;;
2031;SDS011;27625;50.422;7.944;2023-05-07T14:55:01;5.30;;;4.80;;
2031;SDS011;27625;50.422;7.944;2023-05-07T14:57:29;11.63;;;5.30;;
2031;SDS011;27625;50.422;7.944;2023-05-07T15:00:03;5.90;;;4.70;;
2031;SDS011;27625;50.422;7.944;2023-05-07T15:02:30;5.30;;;4.33;;
2031;SDS011;27625;50.422;7.944;2023-05-07T15:05:01;4.70;;;4.20;;
2031;SDS011;27625;50.422;7.944;2023-05-07T15:07:28;5.80;;;4.70;;
2031;SDS011;27625;50.422;7.944;2023-05-07T15:09:54;5.60;;;4.83;;
2031;SDS011;27625;50.422;7.944;2023-05-07T15:12:22;4.43;;;4.03;;
2031;SDS011;27625;50.422;7.944;2023-05-07T15:14:50;5.27;;;4.40;;
2031;SDS011;27625;50.422;7.944;2023-05-07T15:17:17;5.53;;;4.63;;
2031;SDS011;27625;50.422;7.944;2023-05-07T15:19:43;5.43;;;4.43;;
2031;SDS011;27625;50.422;7.944;2023-05-07T15:22:11;7.67;;;5.10;;
2031;SDS011;27625;50.422;7.944;2023-05-07T15:24:38;5.20;;;4.70;;
2031;SDS011;27625;50.422;7.944;2023-05-07T15:27:07;5.30;;;4.80;;
2031;SDS011;27625;50.422;7.944;2023-05-07T15:29:35;5.30;;;4.53;;